Time;durP1;ratioP1;P1;durP2;ratioP2;P2;SDS_P1;SDS_P2;PMS_P1;PMS_P2;Temp;Humidity;BMP_temperature;BMP_pressure;BME280_temperature;BME280_humidity;BME280_pressure;Samples;Min_cycle;Max_cycle;Signal;HPM_P1;HPM_P2
2021/10/30 00:01:06;;;;;;;24.98;15.45;;;;;;;3.35;73.36;94219.59;4990046;28;20022;-43
2021/10/30 00:03:32;;;;;;;27.55;14.32;;;;;;;3.54;73.38;94207.09;4989848;28;20029;-46
2021/10/30 00:05:57;;;;;;;21.95;14.85;;;;;;;3.36;73.75;94199.25;4989906;28;20775;-44
2021/10/30 00:08:24;;;;;;;38.10;22.23;;;;;;;3.21;75.77;94207.56;4990240;28;20030;-45
2021/10/30 00:10:49;;;;;;;44.92;24.50;;;;;;;3.21;76.04;94196.66;4990061;28;20113;-46
2021/10/30 00:13:15;;;;;;;37.50;21.77;;;;;;;3.53;76.05;94209.06;4990040;28;20117;-45
2021/10/30 00:15:42;;;;;;;37.22;21.73;;;;;;;3.56;75.55;94207.34;4990492;28;20026;-47
2021/10/30 00:18:07;;;;;;;32.58;20.48;;;;;;;3.57;74.80;94201.41;4990839;28;20423;-44
2021/10/30 00:20:33;;;;;;;27.95;17.52;;;;;;;3.65;73.35;94209.91;4990948;28;20026;-45
2021/10/30 00:22:59;;;;;;;29.48;18.92;;;;;;;3.62;73.45;94213.59;4990977;28;20022;-47
2021/10/30 00:25:25;;;;;;;30.92;19.33;;;;;;;3.41;74.04;94210.22;4990821;28;20038;-45
2021/10/30 00:27:50;;;;;;;22.77;15.15;;;;;;;3.19;74.38;94207.31;4990045;28;20030;-48
2021/10/30 00:30:15;;;;;;;26.75;14.00;;;;;;;2.95;75.30;94209.53;4989917;28;20509;-44
2021/10/30 00:32:41;;;;;;;25.67;14.45;;;;;;;2.85;77.57;94211.69;4990723;28;20437;-43
2021/10/30 00:35:06;;;;;;;23.77;13.60;;;;;;;2.79;77.74;94204.69;4990881;28;20498;-43
2021/10/30 00:37:32;;;;;;;18.55;11.13;;;;;;;3.12;77.91;94215.91;4989796;28;20062;-45
2021/10/30 00:39:57;;;;;;;17.27;9.95;;;;;;;3.35;77.78;94205.97;4989954;28;20027;-45
2021/10/30 00:42:23;;;;;;;15.90;10.15;;;;;;;3.33;77.47;94209.19;4989659;28;20523;-45
2021/10/30 00:44:48;;;;;;;19.55;11.30;;;;;;;3.44;75.73;94198.34;4989498;28;20030;-46
2021/10/30 00:47:14;;;;;;;20.60;13.35;;;;;;;3.50;74.13;94203.84;4989249;28;20037;-47
2021/10/30 00:49:42;;;;;;;21.13;12.25;;;;;;;3.58;73.44;94197.47;4989561;28;20065;-44
2021/10/30 00:52:09;;;;;;;14.45;10.77;;;;;;;3.34;73.34;94201.72;4989503;28;20030;-43
2021/10/30 00:54:37;;;;;;;19.10;11.90;;;;;;;3.41;73.65;94207.50;4989459;28;20137;-46
2021/10/30 00:57:04;;;;;;;17.63;13.25;;;;;;;3.29;73.35;94208.63;4990863;28;20045;-44
2021/10/30 00:59:30;;;;;;;20.20;14.80;;;;;;;3.29;74.65;94207.91;4990143;28;20113;-44
2021/10/30 01:01:55;;;;;;;26.45;14.45;;;;;;;3.40;73.97;94205.25;4990277;28;20026;-45
2021/10/30 01:04:21;;;;;;;20.67;13.85;;;;;;;3.40;74.63;94206.00;4990651;28;20034;-45
2021/10/30 01:06:50;;;;;;;22.45;14.85;;;;;;;3.41;74.66;94199.31;4973162;28;20026;-47
2021/10/30 01:09:17;;;;;;;26.85;16.58;;;;;;;3.22;74.46;94197.41;4973239;28;20692;-45
2021/10/30 01:11:43;;;;;;;35.92;22.20;;;;;;;3.19;75.45;94192.91;4990903;28;20026;-46
2021/10/30 01:14:09;;;;;;;34.58;23.20;;;;;;;3.20;76.47;94199.88;4990805;28;20105;-44
2021/10/30 01:16:34;;;;;;;35.67;20.35;;;;;;;3.17;75.77;94171.56;4990744;28;20056;-45
2021/10/30 01:19:00;;;;;;;31.95;18.17;;;;;;;3.21;76.26;94185.75;4990833;28;20049;-46
2021/10/30 01:21:27;;;;;;;25.80;17.02;;;;;;;3.32;75.93;94182.34;4990861;28;20732;-46
2021/10/30 01:23:53;;;;;;;33.03;20.65;;;;;;;3.04;75.51;94163.03;4990716;28;20037;-44
2021/10/30 01:26:21;;;;;;;35.40;21.42;;;;;;;3.29;73.81;94180.59;4990461;28;20037;-45
2021/10/30 01:28:47;;;;;;;32.67;21.10;;;;;;;3.26;73.94;94176.09;4990107;28;20113;-44
2021/10/30 01:31:12;;;;;;;32.25;21.52;;;;;;;3.37;73.35;94174.22;4980209;28;20536;-47
2021/10/30 01:33:40;;;;;;;33.75;20.73;;;;;;;3.19;74.13;94173.81;4974679;28;20030;-46
2021/10/30 01:36:10;;;;;;;34.63;21.50;;;;;;;3.22;75.69;94170.13;4974796;28;20046;-49
2021/10/30 01:38:36;;;;;;;34.35;21.35;;;;;;;3.21;75.34;94174.06;4974848;28;20023;-46
2021/10/30 01:41:01;;;;;;;33.13;19.58;;;;;;;3.17;74.83;94181.72;4974874;28;20476;-48
2021/10/30 01:43:27;;;;;;;32.97;20.05;;;;;;;2.99;74.62;94180.06;4974657;28;20117;-49
2021/10/30 01:45:52;;;;;;;29.38;17.73;;;;;;;2.97;74.27;94177.84;4974799;28;20030;-48
2021/10/30 01:48:19;;;;;;;20.90;14.48;;;;;;;3.04;73.27;94165.75;4974349;28;20511;-45
2021/10/30 01:50:45;;;;;;;26.60;15.57;;;;;;;3.05;72.77;94178.91;4992123;28;20030;-48
2021/10/30 01:53:10;;;;;;;23.75;15.32;;;;;;;2.93;74.30;94182.75;4993758;28;20018;-47
2021/10/30 01:55:38;;;;;;;32.28;19.42;;;;;;;2.80;74.52;94170.72;4993590;28;20085;-45
2021/10/30 01:58:05;;;;;;;33.95;20.42;;;;;;;2.55;76.34;94166.78;4993961;28;20077;-45
2021/10/30 02:00:30;;;;;;;39.50;19.13;;;;;;;2.76;75.54;94170.94;4993933;28;20053;-47
2021/10/30 02:02:56;;;;;;;38.70;21.33;;;;;;;2.72;75.56;94169.66;4993904;28;20422;-46
2021/10/30 02:05:22;;;;;;;27.48;17.80;;;;;;;2.64;75.27;94166.59;4993495;28;20038;-47
2021/10/30 02:07:47;;;;;;;35.13;18.13;;;;;;;2.71;75.15;94166.19;4993797;28;20040;-45
2021/10/30 02:10:14;;;;;;;25.42;16.38;;;;;;;2.56;75.39;94168.25;4993496;28;20037;-46
2021/10/30 02:12:39;;;;;;;38.88;20.52;;;;;;;2.63;75.10;94165.09;4993459;28;20030;-47
2021/10/30 02:15:05;;;;;;;31.55;16.67;;;;;;;2.62;75.85;94155.41;4993406;28;20114;-45
2021/10/30 02:17:31;;;;;;;24.67;14.23;;;;;;;2.45;74.63;94162.69;4993637;28;20058;-47
2021/10/30 02:19:56;;;;;;;19.35;12.05;;;;;;;2.38;74.49;94165.84;4993239;28;20034;-45
2021/10/30 02:22:22;;;;;;;24.13;12.68;;;;;;;2.39;74.47;94161.13;4993286;28;20030;-45
2021/10/30 02:24:47;;;;;;;18.98;11.55;;;;;;;2.45;74.48;94168.13;4993400;28;20026;-46
2021/10/30 02:27:13;;;;;;;16.42;11.27;;;;;;;2.16;73.15;94166.31;4993306;28;20040;-47
2021/10/30 02:29:39;;;;;;;20.63;12.90;;;;;;;2.43;73.12;94173.31;4993175;28;20030;-46
2021/10/30 02:32:05;;;;;;;20.85;12.73;;;;;;;2.46;72.18;94172.34;4993318;28;20030;-47
2021/10/30 02:34:30;;;;;;;24.00;14.07;;;;;;;2.53;72.04;94182.84;4993351;28;20030;-45
2021/10/30 02:36:56;;;;;;;31.00;16.80;;;;;;;2.45;72.75;94176.31;4993217;28;20388;-46
2021/10/30 02:39:22;;;;;;;28.98;17.15;;;;;;;2.25;73.13;94170.88;4993229;28;20038;-45
2021/10/30 02:41:48;;;;;;;33.30;18.83;;;;;;;2.16;73.34;94177.22;4993050;28;20411;-46
2021/10/30 02:44:13;;;;;;;35.00;18.23;;;;;;;2.19;74.17;94186.38;4992759;28;20447;-47
2021/10/30 02:46:39;;;;;;;26.75;17.02;;;;;;;2.19;73.34;94192.59;4993112;28;20026;-45
2021/10/30 02:49:05;;;;;;;19.92;12.07;;;;;;;2.03;72.93;94190.44;4992790;28;20030;-44
2021/10/30 02:51:31;;;;;;;26.02;16.33;;;;;;;1.87;73.70;94187.47;4992975;28;20030;-47
2021/10/30 02:53:57;;;;;;;26.17;15.50;;;;;;;1.98;74.83;94182.91;4992574;28;20534;-51
2021/10/30 02:56:22;;;;;;;29.67;17.42;;;;;;;1.85;74.86;94157.25;4973175;28;20082;-49
2021/10/30 02:58:48;;;;;;;30.60;16.50;;;;;;;1.82;75.27;94193.59;4973350;28;20075;-47
2021/10/30 03:01:13;;;;;;;24.52;15.05;;;;;;;1.91;75.03;94182.56;4972984;28;20030;-47
2021/10/30 03:03:39;;;;;;;24.63;14.80;;;;;;;2.13;73.19;94191.78;4973244;28;20026;-45
2021/10/30 03:06:06;;;;;;;24.02;14.93;;;;;;;1.93;74.12;94196.44;4972968;28;20034;-50
2021/10/30 03:08:32;;;;;;;28.38;15.95;;;;;;;1.79;74.95;94194.53;4972945;28;20054;-45
2021/10/30 03:10:57;;;;;;;26.95;17.23;;;;;;;1.90;74.92;94187.28;4972822;28;20030;-46
2021/10/30 03:13:23;;;;;;;26.42;17.17;;;;;;;1.91;75.39;94182.56;4972801;28;20110;-46
2021/10/30 03:15:48;;;;;;;27.50;17.10;;;;;;;1.57;76.67;94191.50;4972912;28;20059;-46
2021/10/30 03:18:13;;;;;;;28.50;15.30;;;;;;;1.70;75.80;94200.09;4972999;28;20435;-46
2021/10/30 03:20:39;;;;;;;23.23;13.25;;;;;;;1.84;73.74;94200.03;4972892;28;20034;-44
2021/10/30 03:23:04;;;;;;;22.10;13.65;;;;;;;1.71;72.95;94202.34;4972920;28;20033;-47
2021/10/30 03:25:30;;;;;;;25.65;15.10;;;;;;;1.49;73.38;94175.53;4972884;28;20444;-44
2021/10/30 03:27:56;;;;;;;26.17;16.50;;;;;;;1.72;73.82;94198.41;4972640;28;20431;-47
2021/10/30 03:30:21;;;;;;;32.10;17.85;;;;;;;1.72;73.75;94203.84;4972557;28;20026;-48
2021/10/30 03:32:47;;;;;;;32.05;18.95;;;;;;;1.66;73.56;94199.53;4972797;28;20037;-46
2021/10/30 03:35:12;;;;;;;30.20;18.70;;;;;;;1.71;73.84;94201.59;4972448;28;20018;-46
2021/10/30 03:37:38;;;;;;;37.60;21.27;;;;;;;1.63;73.57;94198.50;4972718;28;20033;-46
2021/10/30 03:40:05;;;;;;;44.03;24.50;;;;;;;1.86;73.89;94202.31;4972711;28;20476;-42
2021/10/30 03:42:31;;;;;;;42.15;25.27;;;;;;;1.84;72.53;94208.22;4972603;28;20042;-41
2021/10/30 03:44:57;;;;;;;52.08;27.88;;;;;;;1.55;73.94;94211.00;4970945;28;20613;-42
2021/10/30 03:47:23;;;;;;;47.53;25.77;;;;;;;1.54;74.19;94199.38;4972272;28;20106;-46
2021/10/30 03:49:48;;;;;;;57.30;29.55;;;;;;;1.34;74.99;94196.59;4972490;28;20483;-44
2021/10/30 03:52:14;;;;;;;38.42;23.50;;;;;;;1.10;76.94;94193.25;4972120;28;20062;-43
2021/10/30 03:54:39;;;;;;;36.90;20.25;;;;;;;1.08;77.46;94197.66;4976806;28;20042;-46
2021/10/30 03:57:05;;;;;;;40.50;21.65;;;;;;;1.19;78.10;94187.69;4991484;28;20030;-42
2021/10/30 03:59:30;;;;;;;32.58;19.70;;;;;;;1.46;77.63;94192.81;4991382;28;20031;-42
2021/10/30 04:01:56;;;;;;;37.22;22.67;;;;;;;1.58;76.69;94198.44;4991629;28;20023;-41
2021/10/30 04:04:21;;;;;;;28.52;18.08;;;;;;;1.69;75.34;94193.16;4991613;28;20026;-41
2021/10/30 04:06:47;;;;;;;42.15;19.83;;;;;;;1.72;74.20;94194.91;4991475;28;20038;-42
2021/10/30 04:09:12;;;;;;;50.60;26.42;;;;;;;1.80;73.20;94196.03;4991294;28;20022;-41
2021/10/30 04:11:38;;;;;;;56.78;34.28;;;;;;;1.64;73.52;94202.75;4991549;28;20034;-42
2021/10/30 04:14:03;;;;;;;63.88;36.00;;;;;;;1.59;73.69;94194.47;4991198;28;20094;-45
2021/10/30 04:16:29;;;;;;;53.53;30.42;;;;;;;1.54;74.28;94193.19;4991445;28;20057;-47
2021/10/30 04:18:58;;;;;;;55.95;31.17;;;;;;;1.50;74.05;94189.91;4991448;28;20057;-42
2021/10/30 04:21:24;;;;;;;59.70;35.13;;;;;;;1.48;74.49;94184.94;4991141;28;20116;-45
2021/10/30 04:23:49;;;;;;;48.40;29.73;;;;;;;1.51;74.45;94203.06;4991310;28;20109;-45
2021/10/30 04:26:15;;;;;;;45.78;28.00;;;;;;;1.57;74.18;94194.22;4991024;28;20026;-47
2021/10/30 04:28:40;;;;;;;44.85;26.13;;;;;;;1.60;73.79;94201.44;4991057;28;20026;-45
2021/10/30 04:31:07;;;;;;;47.17;26.50;;;;;;;1.60;73.79;94199.47;4990772;28;20022;-43
2021/10/30 04:33:34;;;;;;;42.28;24.42;;;;;;;1.58;73.69;94198.44;4990422;28;20034;-42
2021/10/30 04:36:03;;;;;;;44.90;26.20;;;;;;;1.56;74.07;94196.16;4990974;28;20030;-42
2021/10/30 04:38:29;;;;;;;51.42;28.45;;;;;;;1.48;73.70;94195.06;4991149;28;20084;-43
2021/10/30 04:40:55;;;;;;;41.17;25.48;;;;;;;1.49;74.63;94191.88;4990989;28;20478;-44
2021/10/30 04:43:20;;;;;;;55.63;29.02;;;;;;;1.56;74.48;94198.16;4990692;28;20121;-47
2021/10/30 04:45:46;;;;;;;57.45;28.48;;;;;;;1.62;74.38;94188.88;4991014;28;20431;-44
2021/10/30 04:48:12;;;;;;;52.42;29.75;;;;;;;1.69;74.20;94188.44;4990835;28;20491;-45
2021/10/30 04:50:38;;;;;;;59.10;31.70;;;;;;;1.82;74.16;94186.16;4991033;28;20034;-46
2021/10/30 04:53:03;;;;;;;50.25;29.52;;;;;;;1.85;74.17;94184.47;4990740;28;20026;-46
2021/10/30 04:55:29;;;;;;;64.38;34.67;;;;;;;1.83;73.94;94184.19;4990334;28;20069;-43
2021/10/30 04:57:54;;;;;;;57.58;31.30;;;;;;;1.71;74.11;94185.28;4991007;28;20026;-46
2021/10/30 05:00:20;;;;;;;57.88;31.45;;;;;;;1.64;73.77;94185.66;4990686;28;20023;-42
2021/10/30 05:02:45;;;;;;;73.18;35.22;;;;;;;1.57;73.52;94184.06;4990644;28;20030;-43
2021/10/30 05:05:10;;;;;;;92.75;38.30;;;;;;;1.64;74.40;94182.94;4990556;28;20026;-42
2021/10/30 05:07:36;;;;;;;71.70;35.22;;;;;;;1.73;74.37;94183.59;4994500;28;20084;-45
2021/10/30 05:10:02;;;;;;;95.40;42.05;;;;;;;1.51;74.85;94188.69;4994854;28;20081;-44
2021/10/30 05:12:27;;;;;;;106.63;46.42;;;;;;;1.54;75.51;94188.50;4994775;28;20081;-42
2021/10/30 05:14:53;;;;;;;114.13;46.65;;;;;;;1.68;74.77;94188.94;4994479;28;20636;-44
2021/10/30 05:17:18;;;;;;;109.25;46.50;;;;;;;1.68;74.21;94195.13;4994376;28;20021;-46
2021/10/30 05:19:44;;;;;;;99.65;44.03;;;;;;;1.73;74.77;94194.47;4977379;28;20085;-43
2021/10/30 05:22:09;;;;;;;83.40;42.50;;;;;;;1.76;74.01;94195.47;4994470;28;20487;-44
2021/10/30 05:24:35;;;;;;;114.53;51.47;;;;;;;1.78;74.29;94201.19;4994521;28;20392;-43
2021/10/30 05:27:00;;;;;;;124.28;56.42;;;;;;;1.89;73.72;94191.22;4994226;28;20396;-44
2021/10/30 05:29:26;;;;;;;194.20;78.35;;;;;;;1.91;74.00;94193.44;4994101;28;20022;-44
2021/10/30 05:31:51;;;;;;;134.93;57.67;;;;;;;1.85;73.77;94193.38;4994380;28;20030;-44
2021/10/30 05:48:56;;;;;;;159.18;52.83;;;;;;;2.55;71.04;94196.75;5128164;27;24410;-48
2021/10/30 05:51:22;;;;;;;144.10;56.65;;;;;;;2.52;70.53;94196.94;5107864;28;20059;-45
2021/10/30 05:53:47;;;;;;;179.85;60.70;;;;;;;2.22;72.52;94196.34;5107439;28;20112;-45
2021/10/30 05:56:13;;;;;;;105.50;41.97;;;;;;;2.33;72.18;94207.38;5107882;28;20023;-44
2021/10/30 05:58:38;;;;;;;92.82;37.95;;;;;;;2.36;71.90;94208.41;5107610;28;20028;-46
2021/10/30 06:01:04;;;;;;;71.22;34.13;;;;;;;2.35;72.68;94202.22;5107793;28;20027;-46
2021/10/30 06:03:30;;;;;;;49.95;28.00;;;;;;;2.15;72.74;94188.56;5105867;28;20613;-45
2021/10/30 06:05:55;;;;;;;64.22;33.05;;;;;;;2.40;73.03;94198.81;5105992;28;20024;-47
2021/10/30 06:08:21;;;;;;;71.85;34.15;;;;;;;2.56;72.68;94208.38;5106170;28;20107;-46
2021/10/30 06:10:46;;;;;;;77.65;39.90;;;;;;;2.44;72.72;94190.41;5105579;28;20412;-46
2021/10/30 06:13:12;;;;;;;80.85;40.08;;;;;;;2.79;72.20;94210.91;5105582;28;20546;-46
2021/10/30 06:15:37;;;;;;;109.90;45.50;;;;;;;2.86;72.66;94215.91;5105942;28;20035;-42
2021/10/30 06:18:03;;;;;;;91.05;47.05;;;;;;;3.15;72.46;94214.19;5106702;28;20011;-50
2021/10/30 06:20:28;;;;;;;122.60;60.88;;;;;;;3.32;71.49;94215.09;5107316;28;20031;-50
2021/10/30 06:22:54;;;;;;;169.63;84.05;;;;;;;3.43;70.51;94204.28;5107171;28;20098;-47
2021/10/30 06:25:19;;;;;;;141.70;73.97;;;;;;;3.75;69.78;94216.69;5107153;28;20028;-44
2021/10/30 06:27:45;;;;;;;125.07;70.25;;;;;;;3.98;69.83;94223.06;5107240;28;20087;-41
2021/10/30 06:30:11;;;;;;;140.40;75.95;;;;;;;4.13;69.03;94223.66;5088910;28;20092;-44
2021/10/30 06:32:37;;;;;;;105.63;63.47;;;;;;;4.33;68.50;94220.78;5107382;28;20024;-42
2021/10/30 06:35:03;;;;;;;99.90;57.38;;;;;;;4.34;68.40;94217.53;5107272;28;20030;-41
2021/10/30 06:37:29;;;;;;;110.47;64.20;;;;;;;4.25;68.86;94197.84;5106912;28;20493;-43
2021/10/30 06:39:54;;;;;;;92.75;54.35;;;;;;;4.39;69.24;94227.78;5106894;28;20034;-43
2021/10/30 06:42:20;;;;;;;83.55;50.80;;;;;;;4.35;69.27;94224.50;5107197;28;20034;-44
2021/10/30 06:44:45;;;;;;;71.07;44.20;;;;;;;4.56;68.91;94219.63;5106382;28;20488;-46
2021/10/30 06:47:14;;;;;;;52.92;31.92;;;;;;;4.57;69.11;94221.88;5106437;28;20071;-45
2021/10/30 06:49:40;;;;;;;48.35;28.85;;;;;;;4.59;69.21;94224.84;5092785;28;20047;-42
2021/10/30 06:52:08;;;;;;;46.25;29.13;;;;;;;5.09;67.85;94225.03;5093392;28;20024;-42
2021/10/30 06:54:34;;;;;;;55.75;31.17;;;;;;;5.96;66.33;94222.88;5080500;28;20027;-42
2021/10/30 06:56:59;;;;;;;56.72;34.05;;;;;;;7.13;62.83;94231.47;5073070;28;20024;-43
2021/10/30 06:59:25;;;;;;;66.63;39.50;;;;;;;8.38;59.40;94224.06;5073032;28;20556;-42
2021/10/30 07:01:50;;;;;;;68.68;43.58;;;;;;;9.58;55.58;94222.28;5072977;28;20032;-43
2021/10/30 07:04:16;;;;;;;98.03;54.28;;;;;;;10.93;52.42;94214.72;5073015;28;20025;-45
2021/10/30 07:06:41;;;;;;;86.90;50.47;;;;;;;12.23;48.29;94219.13;5072572;28;20017;-44
2021/10/30 07:09:07;;;;;;;72.55;41.05;;;;;;;13.05;45.60;94212.72;5079250;28;20020;-45
2021/10/30 07:11:32;;;;;;;52.90;33.28;;;;;;;13.78;44.41;94219.63;5076473;28;20028;-46
2021/10/30 07:13:58;;;;;;;60.92;35.92;;;;;;;14.08;43.59;94211.38;5081206;28;20040;-43
2021/10/30 07:16:24;;;;;;;31.90;23.00;;;;;;;14.60;42.03;94210.69;5092439;28;20024;-45
2021/10/30 07:18:50;;;;;;;19.15;14.52;;;;;;;15.49;40.67;94207.53;5092575;28;20082;-44
2021/10/30 07:21:16;;;;;;;29.58;20.33;;;;;;;16.06;39.31;94210.41;5092907;28;20020;-44
2021/10/30 07:23:41;;;;;;;29.20;23.23;;;;;;;16.28;38.52;94204.69;5090705;28;20020;-44
2021/10/30 07:26:07;;;;;;;29.45;21.35;;;;;;;16.73;38.15;94197.28;5090523;28;20124;-44
2021/10/30 07:28:32;;;;;;;33.42;25.38;;;;;;;17.35;37.63;94200.38;5090152;28;20489;-44
2021/10/30 07:30:58;;;;;;;35.33;26.73;;;;;;;18.01;36.37;94198.66;5090081;28;20030;-44
2021/10/30 07:33:23;;;;;;;29.83;23.30;;;;;;;18.91;35.47;94196.50;5090358;28;20043;-47
2021/10/30 07:35:49;;;;;;;28.63;21.48;;;;;;;17.96;36.63;94192.00;5089760;28;20016;-46
2021/10/30 07:38:15;;;;;;;9.70;7.88;;;;;;;18.75;35.63;94193.22;5090151;28;20023;-44
2021/10/30 07:40:41;;;;;;;20.75;13.85;;;;;;;18.98;35.06;94186.50;5090362;28;20636;-44
2021/10/30 07:43:06;;;;;;;7.32;6.55;;;;;;;19.21;33.75;94190.38;5089924;28;20035;-44
2021/10/30 07:45:32;;;;;;;7.40;5.88;;;;;;;18.99;34.04;94188.00;5090002;28;20031;-46
2021/10/30 07:47:58;;;;;;;6.78;6.10;;;;;;;19.32;33.40;94169.44;5089944;28;20043;-47
2021/10/30 07:50:25;;;;;;;9.65;6.10;;;;;;;19.54;33.34;94174.63;5089973;28;20055;-45
2021/10/30 07:52:51;;;;;;;8.63;6.88;;;;;;;20.72;31.12;94172.41;5089807;28;20070;-45
2021/10/30 07:55:16;;;;;;;7.00;5.97;;;;;;;20.51;31.43;94173.09;5089546;28;20385;-43
2021/10/30 07:57:42;;;;;;;8.18;5.75;;;;;;;20.83;30.71;94178.13;5088174;28;20020;-44
2021/10/30 08:00:08;;;;;;;7.68;4.78;;;;;;;21.29;29.71;94176.97;5088352;28;20032;-41
2021/10/30 08:02:35;;;;;;;9.48;5.70;;;;;;;20.85;29.99;94177.50;5089722;28;20378;-43
2021/10/30 08:05:01;;;;;;;6.47;5.18;;;;;;;21.10;29.75;94172.94;5089522;28;20031;-43
2021/10/30 08:07:26;;;;;;;6.05;5.43;;;;;;;20.85;29.49;94178.25;5089767;28;20024;-50
2021/10/30 08:09:52;;;;;;;5.15;4.65;;;;;;;20.44;30.05;94165.59;5089475;28;20024;-44
2021/10/30 08:12:17;;;;;;;7.25;4.45;;;;;;;20.89;29.81;94164.50;5089782;28;20032;-45
2021/10/30 08:14:43;;;;;;;6.80;5.10;;;;;;;21.00;29.42;94163.09;5089835;28;20020;-48
2021/10/30 08:17:08;;;;;;;6.35;4.93;;;;;;;21.58;27.73;94169.78;5089507;28;20084;-45
2021/10/30 08:19:34;;;;;;;5.55;5.03;;;;;;;20.67;29.25;94160.19;5089358;28;20032;-44
2021/10/30 08:22:01;;;;;;;5.70;5.13;;;;;;;20.67;29.08;94159.44;5089018;28;20093;-45
2021/10/30 08:24:26;;;;;;;7.38;5.80;;;;;;;20.54;30.13;94160.69;5071319;28;20035;-46
2021/10/30 08:26:52;;;;;;;5.80;4.88;;;;;;;21.37;28.20;94155.03;5089033;28;20050;-46
2021/10/30 08:29:17;;;;;;;6.88;5.70;;;;;;;21.72;27.61;94159.44;5089290;28;20031;-46
2021/10/30 08:31:43;;;;;;;7.30;6.57;;;;;;;22.31;27.01;94169.50;5089105;28;20444;-44
2021/10/30 08:34:08;;;;;;;7.40;5.97;;;;;;;22.09;27.23;94158.97;5089502;28;20504;-44
2021/10/30 08:36:34;;;;;;;7.53;5.80;;;;;;;22.50;27.07;94152.41;5089495;28;20089;-46
2021/10/30 08:39:00;;;;;;;6.45;5.40;;;;;;;23.04;25.89;94160.59;5089124;28;20035;-44
2021/10/30 08:41:25;;;;;;;6.25;5.30;;;;;;;22.77;25.79;94137.13;5082478;28;20056;-44
2021/10/30 08:43:51;;;;;;;5.93;5.32;;;;;;;22.71;26.12;94156.47;5082597;28;20032;-42
2021/10/30 08:46:17;;;;;;;7.00;5.50;;;;;;;23.41;25.54;94148.69;5077304;28;20027;-42
2021/10/30 08:48:45;;;;;;;6.18;5.57;;;;;;;23.33;25.05;94146.13;5073915;28;20818;-42
2021/10/30 08:51:10;;;;;;;6.82;6.22;;;;;;;23.56;25.47;94150.97;5082457;28;20028;-45
2021/10/30 08:53:36;;;;;;;5.38;4.88;;;;;;;23.89;23.94;94145.75;5087470;28;20028;-43
2021/10/30 08:56:03;;;;;;;5.72;5.13;;;;;;;24.79;24.44;94147.19;5073877;28;20703;-44
2021/10/30 08:58:29;;;;;;;5.85;5.20;;;;;;;24.78;23.02;94140.06;5076033;28;20170;-42
2021/10/30 09:00:58;;;;;;;6.30;5.78;;;;;;;24.05;24.24;94138.25;5068048;28;20531;-42
2021/10/30 09:03:24;;;;;;;6.23;5.60;;;;;;;24.20;24.45;94136.91;5068413;28;20052;-42
2021/10/30 09:05:56;;;;;;;6.53;5.93;;;;;;;24.02;24.49;94139.44;5068183;28;20430;-45
2021/10/30 09:08:25;;;;;;;6.65;5.93;;;;;;;23.80;24.55;94129.78;5081282;28;20020;-43
2021/10/30 09:10:56;;;;;;;8.15;6.97;;;;;;;23.59;24.58;94138.44;5068117;28;20041;-43
2021/10/30 09:13:26;;;;;;;7.55;6.07;;;;;;;23.23;25.74;94125.78;5068414;28;20102;-45
2021/10/30 09:15:53;;;;;;;6.97;6.28;;;;;;;23.12;25.67;94126.56;5068208;28;20024;-42
2021/10/30 09:18:36;;;;;;;11.50;6.38;;;;;;;22.95;26.05;94126.94;5067983;28;20032;-43
2021/10/30 09:21:05;;;;;;;10.90;6.72;;;;;;;23.27;25.69;94134.47;5067754;28;20025;-44
2021/10/30 09:23:32;;;;;;;;;;;;;;;23.09;26.08;94125.69;5068270;28;20032;-42
2021/10/30 09:26:03;;;;;;;7.72;6.93;;;;;;;23.44;25.02;94124.88;5067812;28;20389;-43
2021/10/30 09:28:32;;;;;;;7.53;6.82;;;;;;;23.77;25.36;94128.19;5068165;28;20098;-43
2021/10/30 09:31:05;;;;;;;9.23;6.30;;;;;;;23.53;25.00;94119.09;5068014;28;20036;-43
2021/10/30 09:33:33;;;;;;;7.45;5.55;;;;;;;24.17;24.22;94121.25;5067583;28;20036;-44
2021/10/30 09:36:08;;;;;;;7.13;6.43;;;;;;;22.57;25.34;94128.19;5086916;28;20106;-44
2021/10/30 09:38:36;;;;;;;7.10;6.20;;;;;;;22.35;26.36;94118.41;5087601;28;20024;-44
2021/10/30 09:41:03;;;;;;;8.63;6.65;;;;;;;22.21;26.99;94109.81;5087236;28;20036;-45
2021/10/30 09:43:29;;;;;;;9.10;6.22;;;;;;;22.33;26.93;94110.56;5087227;28;20606;-44
2021/10/30 09:46:02;;;;;;;6.95;6.30;;;;;;;23.18;25.54;94104.34;5086728;28;20024;-43
2021/10/30 09:48:27;;;;;;;7.68;5.90;;;;;;;23.48;25.02;94091.28;5068596;28;20448;-45
2021/10/30 09:50:55;;;;;;;8.60;6.47;;;;;;;23.16;25.04;94095.78;5086187;28;20028;-46
2021/10/30 09:54:02;;;;;;;7.05;6.35;;;;;;;22.97;25.84;94096.09;5087001;28;20042;-47
2021/10/30 10:11:25;;;;;;;10.02;7.03;;;;;;;23.51;25.91;94059.78;5087805;28;20523;-44
2021/10/30 10:13:51;;;;;;;7.35;6.15;;;;;;;23.90;24.47;94065.44;5044524;28;20432;-44
2021/10/30 10:16:21;;;;;;;8.32;7.15;;;;;;;24.14;24.55;94054.78;5069603;28;20033;-44
2021/10/30 10:18:58;;;;;;;7.10;6.40;;;;;;;23.94;24.39;94057.94;5069677;28;20570;-47
2021/10/30 10:21:26;;;;;;;6.97;5.72;;;;;;;23.36;24.92;94049.09;5069954;28;20459;-45
2021/10/30 10:23:52;;;;;;;7.53;6.72;;;;;;;23.39;25.24;94045.00;5053931;28;20028;-44
2021/10/30 10:26:29;;;;;;;7.43;6.72;;;;;;;23.57;24.45;94053.75;5055848;28;20029;-44
2021/10/30 10:29:05;;;;;;;9.05;7.47;;;;;;;22.56;25.71;94056.34;5073369;28;20033;-43
2021/10/30 10:31:31;;;;;;;8.27;6.53;;;;;;;22.66;27.41;94047.78;5088105;28;20054;-45
2021/10/30 10:34:15;;;;;;;8.02;7.22;;;;;;;23.17;25.57;94038.81;5093760;28;20034;-45
2021/10/30 10:36:42;;;;;;;8.93;5.82;;;;;;;22.85;26.17;94036.25;5093664;28;20024;-45
2021/10/30 10:39:10;;;;;;;6.88;6.20;;;;;;;22.84;25.98;94037.59;5090844;28;20548;-45
2021/10/30 10:41:43;;;;;;;15.60;6.03;;;;;;;21.98;27.36;94031.06;5078741;28;20032;-48
2021/10/30 10:44:13;;;;;;;7.03;6.43;;;;;;;22.05;27.50;94037.78;5086788;28;20051;-42
2021/10/30 10:46:48;;;;;;;10.07;6.78;;;;;;;22.10;27.52;94033.88;5091882;28;20570;-44
2021/10/30 10:49:40;;;;;;;6.65;5.78;;;;;;;21.54;28.00;94026.22;5093147;28;20076;-46
2021/10/30 10:52:22;;;;;;;14.93;6.35;;;;;;;22.55;27.87;94026.75;5093471;28;20413;-43
2021/10/30 10:54:56;;;;;;;8.60;6.13;;;;;;;21.96;27.80;94027.41;5093114;28;20088;-44
2021/10/30 10:57:30;;;;;;;7.75;6.00;;;;;;;21.99;27.40;94021.28;5093294;28;20031;-46
2021/10/30 11:00:00;;;;;;;6.07;5.28;;;;;;;21.94;27.88;94021.66;5093231;28;20043;-43
2021/10/30 11:02:30;;;;;;;8.95;6.05;;;;;;;21.61;28.77;94027.31;5090772;28;20044;-44
2021/10/30 11:05:07;;;;;;;6.00;5.45;;;;;;;22.23;28.35;94019.94;5080089;28;20020;-44
2021/10/30 11:07:51;;;;;;;6.47;5.90;;;;;;;21.84;28.35;94016.88;5082768;28;20045;-45
2021/10/30 11:10:21;;;;;;;8.35;6.68;;;;;;;21.81;28.22;93981.50;5091299;28;20031;-44
2021/10/30 11:13:01;;;;;;;6.88;5.82;;;;;;;21.48;28.26;94013.88;5091857;28;20438;-42
2021/10/30 11:15:28;;;;;;;6.13;5.55;;;;;;;21.32;28.75;94007.22;5092070;28;20024;-44
2021/10/30 11:55:35;;;;;;;5.38;4.72;;;;;;;18.66;34.24;93973.00;4901276;29;20051;-44
2021/10/30 11:58:00;;;;;;;6.60;5.30;;;;;;;18.43;34.38;93978.25;4935560;28;20133;-42
2021/10/30 12:00:27;;;;;;;5.80;4.57;;;;;;;18.48;34.56;93982.09;5007382;28;20545;-44
2021/10/30 12:03:05;;;;;;;7.07;5.10;;;;;;;18.45;34.09;93981.22;5031668;28;20032;-43
2021/10/30 12:05:34;;;;;;;5.80;5.20;;;;;;;18.44;34.53;93978.97;5034619;28;20498;-42
2021/10/30 12:08:06;;;;;;;7.18;5.88;;;;;;;18.63;34.16;93976.97;5045628;28;20013;-43
2021/10/30 12:10:33;;;;;;;5.03;4.55;;;;;;;18.26;35.12;93980.47;5036226;28;20068;-40
2021/10/30 12:13:07;;;;;;;6.05;5.10;;;;;;;18.14;35.54;93989.41;5031783;28;20020;-42
2021/10/30 12:15:36;;;;;;;6.28;5.13;;;;;;;18.12;35.10;93988.53;5031722;28;20115;-43
2021/10/30 12:18:02;;;;;;;5.88;4.78;;;;;;;17.90;35.49;93975.66;5034152;28;20176;-42
2021/10/30 12:20:27;;;;;;;5.20;4.70;;;;;;;17.82;35.99;93973.00;5051259;28;20029;-45
2021/10/30 12:22:57;;;;;;;7.28;4.50;;;;;;;17.56;36.64;93984.97;5051351;28;20414;-42
2021/10/30 12:25:27;;;;;;;4.45;3.95;;;;;;;17.24;37.25;93991.53;5051147;28;20108;-43
2021/10/30 12:27:56;;;;;;;5.82;4.78;;;;;;;16.91;37.65;93973.59;5049895;28;20587;-45
2021/10/30 12:30:23;;;;;;;7.20;5.20;;;;;;;17.07;38.02;93986.03;5051455;28;20024;-43
2021/10/30 12:32:49;;;;;;;5.13;4.28;;;;;;;16.93;38.70;93976.56;5051015;28;20029;-48